sensor_id;sensor_type;location;lat;lon;timestamp;pressure;altitude;pressure_sealevel;temperature;humidity
62402;BME280;48440;51.224;22.506;2023-12-04T00:01:52;99601.69;;;-2.62;73.41
62402;BME280;48440;51.224;22.506;2023-12-04T00:04:18;99604.19;;;-2.61;73.35
62402;BME280;48440;51.224;22.506;2023-12-04T00:06:43;99606.63;;;-2.59;73.30
62402;BME280;48440;51.224;22.506;2023-12-04T00:09:09;99603.00;;;-2.66;73.67
62402;BME280;48440;51.224;22.506;2023-12-04T00:11:34;99607.63;;;-2.68;73.74
62402;BME280;48440;51.224;22.506;2023-12-04T00:14:00;99612.13;;;-2.69;73.77
62402;BME280;48440;51.224;22.506;2023-12-04T00:16:26;99601.34;;;-2.67;73.62
62402;BME280;48440;51.224;22.506;2023-12-04T00:18:51;99602.31;;;-2.68;73.98
62402;BME280;48440;51.224;22.506;2023-12-04T00:21:17;99612.28;;;-2.70;74.08
62402;BME280;48440;51.224;22.506;2023-12-04T00:23:42;99610.78;;;-2.73;74.05
62402;BME280;48440;51.224;22.506;2023-12-04T00:26:08;99606.44;;;-2.74;74.35
62402;BME280;48440;51.224;22.506;2023-12-04T00:28:36;99610.78;;;-2.73;73.52
62402;BME280;48440;51.224;22.506;2023-12-04T00:31:01;99607.28;;;-2.74;74.16
62402;BME280;48440;51.224;22.506;2023-12-04T00:33:27;99609.13;;;-2.74;73.79
62402;BME280;48440;51.224;22.506;2023-12-04T00:35:52;99608.59;;;-2.78;73.81
62402;BME280;48440;51.224;22.506;2023-12-04T00:38:18;99598.66;;;-2.76;74.37
62402;BME280;48440;51.224;22.506;2023-12-04T00:40:44;99607.28;;;-2.74;74.14
62402;BME280;48440;51.224;22.506;2023-12-04T00:43:09;99610.59;;;-2.80;73.86
62402;BME280;48440;51.224;22.506;2023-12-04T00:45:35;99619.75;;;-2.74;73.97
62402;BME280;48440;51.224;22.506;2023-12-04T00:48:00;99615.41;;;-2.75;74.07
62402;BME280;48440;51.224;22.506;2023-12-04T00:50:26;99619.91;;;-2.76;73.73
62402;BME280;48440;51.224;22.506;2023-12-04T00:52:51;99617.25;;;-2.76;73.92
62402;BME280;48440;51.224;22.506;2023-12-04T00:55:17;99615.09;;;-2.72;73.99
62402;BME280;48440;51.224;22.506;2023-12-04T00:57:42;99622.91;;;-2.70;73.85
62402;BME280;48440;51.224;22.506;2023-12-04T01:00:08;99626.03;;;-2.75;74.16
62402;BME280;48440;51.224;22.506;2023-12-04T01:02:34;99620.22;;;-2.79;73.92
62402;BME280;48440;51.224;22.506;2023-12-04T01:04:59;99619.91;;;-2.76;74.19
62402;BME280;48440;51.224;22.506;2023-12-04T01:07:24;99618.75;;;-2.73;74.48
62402;BME280;48440;51.224;22.506;2023-12-04T01:09:50;99627.53;;;-2.72;74.33
62402;BME280;48440;51.224;22.506;2023-12-04T01:12:15;99614.59;;;-2.76;74.34
62402;BME280;48440;51.224;22.506;2023-12-04T01:14:41;99619.53;;;-2.81;73.97
62402;BME280;48440;51.224;22.506;2023-12-04T01:17:06;99621.69;;;-2.84;74.39
62402;BME280;48440;51.224;22.506;2023-12-04T01:19:32;99626.69;;;-2.81;74.35
62402;BME280;48440;51.224;22.506;2023-12-04T01:21:58;99619.53;;;-2.81;74.30
62402;BME280;48440;51.224;22.506;2023-12-04T01:24:23;99627.50;;;-2.81;74.31
62402;BME280;48440;51.224;22.506;2023-12-04T01:26:48;99625.34;;;-2.85;74.52
62402;BME280;48440;51.224;22.506;2023-12-04T01:29:14;99635.13;;;-2.86;74.75
62402;BME280;48440;51.224;22.506;2023-12-04T01:31:39;99626.34;;;-2.86;74.98
62402;BME280;48440;51.224;22.506;2023-12-04T01:34:05;99621.69;;;-2.84;74.24
62402;BME280;48440;51.224;22.506;2023-12-04T01:36:30;99619.38;;;-2.87;74.89
62402;BME280;48440;51.224;22.506;2023-12-04T01:38:56;99628.81;;;-2.85;74.54
62402;BME280;48440;51.224;22.506;2023-12-04T01:41:21;99619.69;;;-2.90;74.36
62402;BME280;48440;51.224;22.506;2023-12-04T01:43:47;99622.03;;;-2.87;74.83
62402;BME280;48440;51.224;22.506;2023-12-04T01:46:16;99623.84;;;-2.88;74.74
62402;BME280;48440;51.224;22.506;2023-12-04T01:48:43;99625.19;;;-2.84;74.92
62402;BME280;48440;51.224;22.506;2023-12-04T01:51:10;99628.00;;;-2.85;74.56
62402;BME280;48440;51.224;22.506;2023-12-04T01:53:38;99628.66;;;-2.83;74.74
62402;BME280;48440;51.224;22.506;2023-12-04T01:56:04;99628.34;;;-2.80;74.12
62402;BME280;48440;51.224;22.506;2023-12-04T01:58:31;99628.34;;;-2.80;74.21
62402;BME280;48440;51.224;22.506;2023-12-04T02:00:57;99638.97;;;-2.80;74.41
62402;BME280;48440;51.224;22.506;2023-12-04T02:03:22;99634.34;;;-2.78;74.38
62402;BME280;48440;51.224;22.506;2023-12-04T02:05:51;99632.50;;;-2.78;74.60
62402;BME280;48440;51.224;22.506;2023-12-04T02:08:17;99627.19;;;-2.78;74.10
62402;BME280;48440;51.224;22.506;2023-12-04T02:10:43;99623.72;;;-2.78;74.66
62402;BME280;48440;51.224;22.506;2023-12-04T02:13:09;99623.88;;;-2.80;74.69
62402;BME280;48440;51.224;22.506;2023-12-04T02:15:34;99628.19;;;-2.79;74.87
62402;BME280;48440;51.224;22.506;2023-12-04T02:18:01;99620.38;;;-2.80;74.78
62402;BME280;48440;51.224;22.506;2023-12-04T02:20:33;99619.53;;;-2.81;75.03
62402;BME280;48440;51.224;22.506;2023-12-04T02:23:00;99627.34;;;-2.79;74.75
62402;BME280;48440;51.224;22.506;2023-12-04T02:25:26;99612.25;;;-2.79;74.64
62402;BME280;48440;51.224;22.506;2023-12-04T02:27:53;99624.38;;;-2.76;75.00
62402;BME280;48440;51.224;22.506;2023-12-04T02:30:22;99613.41;;;-2.81;74.75
62402;BME280;48440;51.224;22.506;2023-12-04T02:32:48;99612.09;;;-2.77;74.92
62402;BME280;48440;51.224;22.506;2023-12-04T02:35:19;99614.91;;;-2.79;74.73
62402;BME280;48440;51.224;22.506;2023-12-04T02:37:46;99614.06;;;-2.79;74.76
62402;BME280;48440;51.224;22.506;2023-12-04T02:40:12;99610.06;;;-2.83;74.98
62402;BME280;48440;51.224;22.506;2023-12-04T02:42:39;99611.06;;;-2.84;75.66
62402;BME280;48440;51.224;22.506;2023-12-04T02:45:04;99616.72;;;-2.79;75.15
62402;BME280;48440;51.224;22.506;2023-12-04T02:47:30;99606.63;;;-2.76;74.88
62402;BME280;48440;51.224;22.506;2023-12-04T02:49:55;99611.25;;;-2.78;75.07
62402;BME280;48440;51.224;22.506;2023-12-04T02:52:21;99614.75;;;-2.77;75.44
62402;BME280;48440;51.224;22.506;2023-12-04T02:54:46;99612.75;;;-2.75;75.07
62402;BME280;48440;51.224;22.506;2023-12-04T02:57:11;99613.44;;;-2.73;75.03
62402;BME280;48440;51.224;22.506;2023-12-04T02:59:37;99614.09;;;-2.71;75.45
62402;BME280;48440;51.224;22.506;2023-12-04T03:02:03;99618.59;;;-2.71;74.73
62402;BME280;48440;51.224;22.506;2023-12-04T03:04:29;99609.63;;;-2.70;75.08
62402;BME280;48440;51.224;22.506;2023-12-04T03:06:55;99617.91;;;-2.74;74.82
62402;BME280;48440;51.224;22.506;2023-12-04T03:09:20;99623.53;;;-2.77;74.93
62402;BME280;48440;51.224;22.506;2023-12-04T03:11:45;99627.88;;;-2.76;74.69
62402;BME280;48440;51.224;22.506;2023-12-04T03:14:11;99625.22;;;-2.76;74.78
62402;BME280;48440;51.224;22.506;2023-12-04T03:16:36;99620.38;;;-2.80;74.85
62402;BME280;48440;51.224;22.506;2023-12-04T03:19:02;99629.19;;;-2.80;75.26
62402;BME280;48440;51.224;22.506;2023-12-04T03:21:28;99633.00;;;-2.82;75.07
62402;BME280;48440;51.224;22.506;2023-12-04T03:23:54;99628.00;;;-2.85;75.11
62402;BME280;48440;51.224;22.506;2023-12-04T03:26:19;99631.47;;;-2.85;75.23
62402;BME280;48440;51.224;22.506;2023-12-04T03:28:45;99631.66;;;-2.86;75.17
62402;BME280;48440;51.224;22.506;2023-12-04T03:31:10;99639.97;;;-2.81;75.27
62402;BME280;48440;51.224;22.506;2023-12-04T03:33:36;99645.13;;;-2.80;75.35
62402;BME280;48440;51.224;22.506;2023-12-04T03:36:01;99643.13;;;-2.78;75.32
62402;BME280;48440;51.224;22.506;2023-12-04T03:38:27;99637.00;;;-2.78;75.21
62402;BME280;48440;51.224;22.506;2023-12-04T03:40:52;99640.63;;;-2.79;75.45
62402;BME280;48440;51.224;22.506;2023-12-04T03:43:18;99639.13;;;-2.82;75.30
62402;BME280;48440;51.224;22.506;2023-12-04T03:45:43;99644.75;;;-2.85;74.81
62402;BME280;48440;51.224;22.506;2023-12-04T03:48:09;99637.16;;;-2.88;75.17
62402;BME280;48440;51.224;22.506;2023-12-04T03:50:34;99642.63;;;-2.89;75.45
62402;BME280;48440;51.224;22.506;2023-12-04T03:53:00;99640.78;;;-2.89;75.88
62402;BME280;48440;51.224;22.506;2023-12-04T03:55:25;99639.97;;;-2.89;75.68
62402;BME280;48440;51.224;22.506;2023-12-04T03:57:52;99640.28;;;-2.92;75.74
62402;BME280;48440;51.224;22.506;2023-12-04T04:00:18;99644.22;;;-2.96;75.88
62402;BME280;48440;51.224;22.506;2023-12-04T04:02:43;99650.19;;;-3.02;76.06
62402;BME280;48440;51.224;22.506;2023-12-04T04:05:09;99653.66;;;-3.02;75.84
62402;BME280;48440;51.224;22.506;2023-12-04T04:07:35;99658.16;;;-3.02;76.11
62402;BME280;48440;51.224;22.506;2023-12-04T04:10:00;99654.50;;;-3.01;76.21
62402;BME280;48440;51.224;22.506;2023-12-04T04:12:29;99660.13;;;-3.04;76.66
62402;BME280;48440;51.224;22.506;2023-12-04T04:14:54;99658.31;;;-3.04;76.96
62402;BME280;48440;51.224;22.506;2023-12-04T04:17:20;99668.75;;;-3.02;77.21
62402;BME280;48440;51.224;22.506;2023-12-04T04:19:45;99665.13;;;-3.01;76.97
62402;BME280;48440;51.224;22.506;2023-12-04T04:22:11;99672.25;;;-3.02;76.53
62402;BME280;48440;51.224;22.506;2023-12-04T04:24:36;99666.78;;;-3.00;77.22
62402;BME280;48440;51.224;22.506;2023-12-04T04:27:02;99666.63;;;-2.99;76.96
62402;BME280;48440;51.224;22.506;2023-12-04T04:29:27;99669.28;;;-2.99;76.86
62402;BME280;48440;51.224;22.506;2023-12-04T04:31:53;99672.78;;;-2.98;76.84
62402;BME280;48440;51.224;22.506;2023-12-04T04:34:20;99665.63;;;-2.98;76.92
62402;BME280;48440;51.224;22.506;2023-12-04T04:36:46;99669.81;;;-2.95;76.87
62402;BME280;48440;51.224;22.506;2023-12-04T04:39:13;99670.78;;;-2.96;76.86
62402;BME280;48440;51.224;22.506;2023-12-04T04:41:38;99678.44;;;-2.93;77.30
62402;BME280;48440;51.224;22.506;2023-12-04T04:44:05;99692.72;;;-2.94;77.10
62402;BME280;48440;51.224;22.506;2023-12-04T04:46:30;99684.75;;;-2.94;77.37
62402;BME280;48440;51.224;22.506;2023-12-04T04:48:56;99688.09;;;-2.92;77.09
62402;BME280;48440;51.224;22.506;2023-12-04T04:51:22;99690.59;;;-2.91;76.90
62402;BME280;48440;51.224;22.506;2023-12-04T04:53:48;99689.06;;;-2.93;76.77
62402;BME280;48440;51.224;22.506;2023-12-04T04:56:14;99689.75;;;-2.91;76.88
62402;BME280;48440;51.224;22.506;2023-12-04T04:58:39;99688.75;;;-2.90;76.93
62402;BME280;48440;51.224;22.506;2023-12-04T05:01:05;99691.25;;;-2.89;77.12
62402;BME280;48440;51.224;22.506;2023-12-04T05:03:31;99688.09;;;-2.84;77.24
62402;BME280;48440;51.224;22.506;2023-12-04T05:05:56;99694.09;;;-2.82;76.83
62402;BME280;48440;51.224;22.506;2023-12-04T05:08:21;99695.22;;;-2.85;76.97
62402;BME280;48440;51.224;22.506;2023-12-04T05:10:47;99698.41;;;-2.81;76.54
62402;BME280;48440;51.224;22.506;2023-12-04T05:13:14;99692.41;;;-2.83;76.81
62402;BME280;48440;51.224;22.506;2023-12-04T05:15:42;99705.38;;;-2.80;76.85
62402;BME280;48440;51.224;22.506;2023-12-04T05:18:07;99697.56;;;-2.82;76.81
62402;BME280;48440;51.224;22.506;2023-12-04T05:20:32;99701.22;;;-2.83;76.97
62402;BME280;48440;51.224;22.506;2023-12-04T05:22:58;99698.56;;;-2.83;77.10
62402;BME280;48440;51.224;22.506;2023-12-04T05:25:23;99698.41;;;-2.81;76.83
62402;BME280;48440;51.224;22.506;2023-12-04T05:27:49;99695.59;;;-2.80;76.95
62402;BME280;48440;51.224;22.506;2023-12-04T05:30:14;99693.09;;;-2.81;76.83
62402;BME280;48440;51.224;22.506;2023-12-04T05:32:40;99697.41;;;-2.80;77.29
62402;BME280;48440;51.224;22.506;2023-12-04T05:35:06;99699.06;;;-2.79;77.30
62402;BME280;48440;51.224;22.506;2023-12-04T05:37:31;99697.94;;;-2.77;77.57
62402;BME280;48440;51.224;22.506;2023-12-04T05:39:57;99704.25;;;-2.78;77.08
62402;BME280;48440;51.224;22.506;2023-12-04T05:42:23;99710.22;;;-2.76;77.07
62402;BME280;48440;51.224;22.506;2023-12-04T05:44:48;99701.25;;;-2.75;77.18
62402;BME280;48440;51.224;22.506;2023-12-04T05:47:14;99705.75;;;-2.75;77.07
62402;BME280;48440;51.224;22.506;2023-12-04T05:49:40;99715.06;;;-2.71;77.37
62402;BME280;48440;51.224;22.506;2023-12-04T05:52:05;99713.41;;;-2.72;76.93
62402;BME280;48440;51.224;22.506;2023-12-04T05:54:31;99715.91;;;-2.70;77.43
62402;BME280;48440;51.224;22.506;2023-12-04T05:56:56;99717.72;;;-2.71;77.15
62402;BME280;48440;51.224;22.506;2023-12-04T05:59:22;99713.56;;;-2.74;77.30
62402;BME280;48440;51.224;22.506;2023-12-04T06:01:47;99723.88;;;-2.70;77.34
62402;BME280;48440;51.224;22.506;2023-12-04T06:04:13;99717.72;;;-2.71;77.46
62402;BME280;48440;51.224;22.506;2023-12-04T06:06:38;99728.19;;;-2.69;77.42
62402;BME280;48440;51.224;22.506;2023-12-04T06:09:04;99727.34;;;-2.70;77.10
62402;BME280;48440;51.224;22.506;2023-12-04T06:11:30;99724.38;;;-2.67;77.45
62402;BME280;48440;51.224;22.506;2023-12-04T06:13:56;99724.06;;;-2.64;77.02
62402;BME280;48440;51.224;22.506;2023-12-04T06:16:21;99731.22;;;-2.64;77.24
62402;BME280;48440;51.224;22.506;2023-12-04T06:18:47;99728.56;;;-2.64;77.28
62402;BME280;48440;51.224;22.506;2023-12-04T06:21:12;99735.69;;;-2.65;77.67
62402;BME280;48440;51.224;22.506;2023-12-04T06:23:38;99733.03;;;-2.65;77.31
62402;BME280;48440;51.224;22.506;2023-12-04T06:26:04;99743.00;;;-2.67;77.56
62402;BME280;48440;51.224;22.506;2023-12-04T06:28:30;99734.03;;;-2.66;77.20
62402;BME280;48440;51.224;22.506;2023-12-04T06:30:56;99727.72;;;-2.65;77.40
62402;BME280;48440;51.224;22.506;2023-12-04T06:33:22;99727.03;;;-2.67;77.19
62402;BME280;48440;51.224;22.506;2023-12-04T06:35:48;99733.50;;;-2.69;77.14
62402;BME280;48440;51.224;22.506;2023-12-04T06:38:15;99732.66;;;-2.70;77.67
62402;BME280;48440;51.224;22.506;2023-12-04T06:40:41;99720.38;;;-2.71;77.52
62402;BME280;48440;51.224;22.506;2023-12-04T06:43:07;99735.50;;;-2.71;77.87
62402;BME280;48440;51.224;22.506;2023-12-04T06:45:33;99731.84;;;-2.70;77.30
62402;BME280;48440;51.224;22.506;2023-12-04T06:47:59;99737.81;;;-2.68;77.69
62402;BME280;48440;51.224;22.506;2023-12-04T06:50:26;99740.84;;;-2.63;77.33
62402;BME280;48440;51.224;22.506;2023-12-04T06:52:51;99745.97;;;-2.70;77.27
62402;BME280;48440;51.224;22.506;2023-12-04T06:55:16;99751.28;;;-2.70;77.22
62402;BME280;48440;51.224;22.506;2023-12-04T06:57:42;99751.78;;;-2.66;77.49
62402;BME280;48440;51.224;22.506;2023-12-04T07:00:08;99748.50;;;-2.60;77.06
62402;BME280;48440;51.224;22.506;2023-12-04T07:02:37;99754.66;;;-2.60;77.24
62402;BME280;48440;51.224;22.506;2023-12-04T07:05:03;99755.81;;;-2.62;76.98
62402;BME280;48440;51.224;22.506;2023-12-04T07:07:29;99754.66;;;-2.60;77.18
62402;BME280;48440;51.224;22.506;2023-12-04T07:09:54;99749.81;;;-2.56;77.00
62402;BME280;48440;51.224;22.506;2023-12-04T07:12:20;99755.97;;;-2.56;77.08
62402;BME280;48440;51.224;22.506;2023-12-04T07:14:45;99759.63;;;-2.57;77.10
62402;BME280;48440;51.224;22.506;2023-12-04T07:17:10;99762.44;;;-2.58;76.79
62402;BME280;48440;51.224;22.506;2023-12-04T07:19:36;99763.25;;;-2.58;76.88
62402;BME280;48440;51.224;22.506;2023-12-04T07:22:03;99761.28;;;-2.56;76.77
62402;BME280;48440;51.224;22.506;2023-12-04T07:24:28;99768.44;;;-2.56;77.05
62402;BME280;48440;51.224;22.506;2023-12-04T07:26:54;99770.09;;;-2.55;77.04
62402;BME280;48440;51.224;22.506;2023-12-04T07:29:19;99757.63;;;-2.55;77.26
62402;BME280;48440;51.224;22.506;2023-12-04T07:31:45;99765.44;;;-2.53;76.92
62402;BME280;48440;51.224;22.506;2023-12-04T07:34:10;99760.81;;;-2.51;76.94
62402;BME280;48440;51.224;22.506;2023-12-04T07:36:36;99767.78;;;-2.50;76.91
62402;BME280;48440;51.224;22.506;2023-12-04T07:39:01;99769.63;;;-2.51;76.60
62402;BME280;48440;51.224;22.506;2023-12-04T07:41:27;99767.78;;;-2.50;76.68
62402;BME280;48440;51.224;22.506;2023-12-04T07:43:52;99770.94;;;-2.55;76.97
62402;BME280;48440;51.224;22.506;2023-12-04T07:46:17;99772.44;;;-2.52;76.97
62402;BME280;48440;51.224;22.506;2023-12-04T07:48:43;99775.59;;;-2.49;76.57
62402;BME280;48440;51.224;22.506;2023-12-04T07:51:11;99770.81;;;-2.45;76.67
62402;BME280;48440;51.224;22.506;2023-12-04T07:53:37;99772.63;;;-2.46;76.42
62402;BME280;48440;51.224;22.506;2023-12-04T07:56:03;99773.47;;;-2.45;76.77
62402;BME280;48440;51.224;22.506;2023-12-04T07:58:28;99778.78;;;-2.45;76.62
62402;BME280;48440;51.224;22.506;2023-12-04T08:00:54;99776.66;;;-2.42;76.48
62402;BME280;48440;51.224;22.506;2023-12-04T08:03:19;99781.50;;;-2.37;76.53
62402;BME280;48440;51.224;22.506;2023-12-04T08:05:45;99779.66;;;-2.36;76.08
62402;BME280;48440;51.224;22.506;2023-12-04T08:08:10;99786.97;;;-2.30;75.86
62402;BME280;48440;51.224;22.506;2023-12-04T08:10:35;99785.16;;;-2.30;75.43
62402;BME280;48440;51.224;22.506;2023-12-04T08:13:01;99780.50;;;-2.28;75.18
62402;BME280;48440;51.224;22.506;2023-12-04T08:15:27;99786.50;;;-2.26;75.10
62402;BME280;48440;51.224;22.506;2023-12-04T08:17:52;99791.66;;;-2.24;75.25
62402;BME280;48440;51.224;22.506;2023-12-04T08:20:17;99790.31;;;-2.28;74.52
62402;BME280;48440;51.224;22.506;2023-12-04T08:22:47;99797.66;;;-2.22;74.52
62402;BME280;48440;51.224;22.506;2023-12-04T08:25:12;99794.00;;;-2.21;75.14
62402;BME280;48440;51.224;22.506;2023-12-04T08:27:38;99790.53;;;-2.14;74.53
62402;BME280;48440;51.224;22.506;2023-12-04T08:30:07;99792.84;;;-2.19;74.48
62402;BME280;48440;51.224;22.506;2023-12-04T08:32:32;99794.66;;;-2.19;74.37
62402;BME280;48440;51.224;22.506;2023-12-04T08:34:58;99798.31;;;-2.20;74.57
62402;BME280;48440;51.224;22.506;2023-12-04T08:37:23;99801.66;;;-2.18;74.58
62402;BME280;48440;51.224;22.506;2023-12-04T08:39:49;99801.50;;;-2.17;74.39
62402;BME280;48440;51.224;22.506;2023-12-04T08:42:14;99804.84;;;-2.15;74.29
62402;BME280;48440;51.224;22.506;2023-12-04T08:44:39;99816.31;;;-2.14;74.36
62402;BME280;48440;51.224;22.506;2023-12-04T08:47:05;99819.31;;;-2.09;73.89
62402;BME280;48440;51.224;22.506;2023-12-04T08:49:31;99819.81;;;-2.06;74.01
62402;BME280;48440;51.224;22.506;2023-12-04T08:51:57;99815.47;;;-2.07;74.19
62402;BME280;48440;51.224;22.506;2023-12-04T08:54:24;99821.47;;;-2.05;73.82
62402;BME280;48440;51.224;22.506;2023-12-04T08:56:49;99817.81;;;-2.03;74.03
62402;BME280;48440;51.224;22.506;2023-12-04T08:59:15;99817.19;;;-1.97;74.05
62402;BME280;48440;51.224;22.506;2023-12-04T09:01:42;99811.22;;;-1.91;73.96
62402;BME280;48440;51.224;22.506;2023-12-04T09:04:08;99815.88;;;-1.85;72.75
62402;BME280;48440;51.224;22.506;2023-12-04T09:06:33;99817.03;;;-1.88;73.38
62402;BME280;48440;51.224;22.506;2023-12-04T09:08:59;99814.53;;;-1.81;73.14
62402;BME280;48440;51.224;22.506;2023-12-04T09:11:24;99811.41;;;-1.77;72.87
62402;BME280;48440;51.224;22.506;2023-12-04T09:13:49;99806.25;;;-1.78;72.78
62402;BME280;48440;51.224;22.506;2023-12-04T09:16:15;99818.06;;;-1.73;72.58
62402;BME280;48440;51.224;22.506;2023-12-04T09:18:40;99811.44;;;-1.60;71.89
62402;BME280;48440;51.224;22.506;2023-12-04T09:21:06;99809.28;;;-1.65;71.53
62402;BME280;48440;51.224;22.506;2023-12-04T09:23:33;99809.28;;;-1.65;72.17
62402;BME280;48440;51.224;22.506;2023-12-04T09:25:58;99814.91;;;-1.68;71.72
62402;BME280;48440;51.224;22.506;2023-12-04T09:28:24;99808.41;;;-1.74;71.67
62402;BME280;48440;51.224;22.506;2023-12-04T09:30:49;99808.25;;;-1.72;71.96
62402;BME280;48440;51.224;22.506;2023-12-04T09:33:14;99811.59;;;-1.70;71.61
62402;BME280;48440;51.224;22.506;2023-12-04T09:35:40;99807.94;;;-1.69;71.66
62402;BME280;48440;51.224;22.506;2023-12-04T09:38:05;99812.94;;;-1.66;72.03
62402;BME280;48440;51.224;22.506;2023-12-04T09:40:32;99797.94;;;-1.67;71.65
62402;BME280;48440;51.224;22.506;2023-12-04T09:42:57;99798.47;;;-1.63;71.67
62402;BME280;48440;51.224;22.506;2023-12-04T09:45:24;99802.47;;;-1.59;71.67
62402;BME280;48440;51.224;22.506;2023-12-04T09:47:50;99797.13;;;-1.67;71.46
62402;BME280;48440;51.224;22.506;2023-12-04T09:50:16;99794.13;;;-1.64;71.89
62402;BME280;48440;51.224;22.506;2023-12-04T09:52:48;99791.16;;;-1.61;71.61
62402;BME280;48440;51.224;22.506;2023-12-04T09:55:15;99797.81;;;-1.57;71.17
62402;BME280;48440;51.224;22.506;2023-12-04T09:57:41;99802.78;;;-1.62;71.52
62402;BME280;48440;51.224;22.506;2023-12-04T10:00:09;99796.63;;;-1.55;71.01
62402;BME280;48440;51.224;22.506;2023-12-04T10:02:35;99794.13;;;-1.48;71.13
62402;BME280;48440;51.224;22.506;2023-12-04T10:05:02;99795.63;;;-1.54;70.73
62402;BME280;48440;51.224;22.506;2023-12-04T10:07:30;99791.63;;;-1.50;70.83
62402;BME280;48440;51.224;22.506;2023-12-04T10:09:55;99795.97;;;-1.41;70.32
62402;BME280;48440;51.224;22.506;2023-12-04T10:12:21;99787.31;;;-1.26;70.57
62402;BME280;48440;51.224;22.506;2023-12-04T10:15:09;99787.81;;;-1.23;69.97
62402;BME280;48440;51.224;22.506;2023-12-04T10:17:37;99792.81;;;-1.20;69.43
62402;BME280;48440;51.224;22.506;2023-12-04T10:20:14;99788.66;;;-1.06;69.03
62402;BME280;48440;51.224;22.506;2023-12-04T10:22:52;99792.63;;;-0.94;68.35
62402;BME280;48440;51.224;22.506;2023-12-04T10:25:18;99785.78;;;-0.96;68.11
62402;BME280;48440;51.224;22.506;2023-12-04T10:27:45;99796.94;;;-1.01;68.11
62402;BME280;48440;51.224;22.506;2023-12-04T10:30:31;99787.78;;;-0.98;68.03
62402;BME280;48440;51.224;22.506;2023-12-04T10:32:57;99788.13;;;-0.93;67.20
62402;BME280;48440;51.224;22.506;2023-12-04T10:35:29;99784.47;;;-1.00;67.05
62402;BME280;48440;51.224;22.506;2023-12-04T10:37:56;99787.00;;;-1.15;67.45
62402;BME280;48440;51.224;22.506;2023-12-04T10:40:26;99785.50;;;-1.18;67.48
62402;BME280;48440;51.224;22.506;2023-12-04T10:45:36;99784.66;;;-1.26;67.58
62402;BME280;48440;51.224;22.506;2023-12-04T10:48:02;99789.81;;;-1.25;67.65
62402;BME280;48440;51.224;22.506;2023-12-04T10:50:37;99784.81;;;-1.20;67.37
62402;BME280;48440;51.224;22.506;2023-12-04T10:53:04;99786.00;;;-1.14;67.46
62402;BME280;48440;51.224;22.506;2023-12-04T10:55:32;99792.16;;;-1.14;67.40
62402;BME280;48440;51.224;22.506;2023-12-04T10:58:00;99786.16;;;-1.08;67.83
62402;BME280;48440;51.224;22.506;2023-12-04T11:00:28;99797.22;;;-0.72;66.73
62402;BME280;48440;51.224;22.506;2023-12-04T11:02:55;99792.22;;;0.43;64.76
62402;BME280;48440;51.224;22.506;2023-12-04T11:05:23;99790.31;;;0.74;63.01
62402;BME280;48440;51.224;22.506;2023-12-04T11:08:00;99788.00;;;0.71;62.38
62402;BME280;48440;51.224;22.506;2023-12-04T11:10:27;99789.59;;;0.34;62.75
62402;BME280;48440;51.224;22.506;2023-12-04T11:13:10;99794.72;;;-0.18;64.38
62402;BME280;48440;51.224;22.506;2023-12-04T11:15:42;99793.31;;;-0.37;63.68
62402;BME280;48440;51.224;22.506;2023-12-04T11:18:13;99789.06;;;-0.70;65.39
62402;BME280;48440;51.224;22.506;2023-12-04T11:20:44;99796.13;;;-0.85;66.00
62402;BME280;48440;51.224;22.506;2023-12-04T11:23:13;99791.97;;;-1.04;66.53
62402;BME280;48440;51.224;22.506;2023-12-04T11:25:41;99788.66;;;-1.14;66.89
62402;BME280;48440;51.224;22.506;2023-12-04T11:28:07;99794.66;;;-1.12;67.27
62402;BME280;48440;51.224;22.506;2023-12-04T11:30:34;99792.31;;;-1.15;67.10
62402;BME280;48440;51.224;22.506;2023-12-04T11:33:00;99788.66;;;-1.14;67.34
62402;BME280;48440;51.224;22.506;2023-12-04T11:35:26;99792.47;;;-1.17;67.16
62402;BME280;48440;51.224;22.506;2023-12-04T11:37:52;99793.16;;;-1.15;67.07
62402;BME280;48440;51.224;22.506;2023-12-04T11:40:18;99797.66;;;-1.07;66.78
62402;BME280;48440;51.224;22.506;2023-12-04T11:42:44;99788.50;;;-1.05;66.99
62402;BME280;48440;51.224;22.506;2023-12-04T11:45:10;99787.97;;;-1.00;66.41
62402;BME280;48440;51.224;22.506;2023-12-04T11:47:55;99793.78;;;-0.88;66.62
62402;BME280;48440;51.224;22.506;2023-12-04T11:50:22;99799.28;;;-0.82;65.35
62402;BME280;48440;51.224;22.506;2023-12-04T11:52:49;99797.41;;;-0.73;65.68
62402;BME280;48440;51.224;22.506;2023-12-04T11:55:20;99798.59;;;-0.84;65.22
62402;BME280;48440;51.224;22.506;2023-12-04T11:57:49;99790.94;;;-0.87;65.20
62402;BME280;48440;51.224;22.506;2023-12-04T12:05:22;99784.66;;;-1.10;65.76
62402;BME280;48440;51.224;22.506;2023-12-04T12:07:48;99796.47;;;-1.13;66.01
62402;BME280;48440;51.224;22.506;2023-12-04T12:10:15;99790.66;;;-1.24;66.06
62402;BME280;48440;51.224;22.506;2023-12-04T12:12:41;99787.00;;;-1.31;66.51
62402;BME280;48440;51.224;22.506;2023-12-04T12:15:10;99788.66;;;-1.39;66.96
62402;BME280;48440;51.224;22.506;2023-12-04T12:17:40;99789.31;;;-1.45;66.85
62402;BME280;48440;51.224;22.506;2023-12-04T12:20:07;99793.47;;;-1.50;67.27
62402;BME280;48440;51.224;22.506;2023-12-04T12:22:35;99781.47;;;-1.54;67.56
62402;BME280;48440;51.224;22.506;2023-12-04T12:25:03;99776.31;;;-1.56;67.36
62402;BME280;48440;51.224;22.506;2023-12-04T12:27:30;99780.50;;;-1.61;67.44
62402;BME280;48440;51.224;22.506;2023-12-04T12:29:55;99783.16;;;-1.61;67.40
62402;BME280;48440;51.224;22.506;2023-12-04T12:32:21;99780.34;;;-1.60;67.47
62402;BME280;48440;51.224;22.506;2023-12-04T12:34:46;99781.84;;;-1.57;66.90
62402;BME280;48440;51.224;22.506;2023-12-04T12:37:11;99783.00;;;-1.60;67.54
62402;BME280;48440;51.224;22.506;2023-12-04T12:39:37;99771.00;;;-1.64;67.23
62402;BME280;48440;51.224;22.506;2023-12-04T12:42:03;99773.34;;;-1.69;67.33
62402;BME280;48440;51.224;22.506;2023-12-04T12:44:39;99775.66;;;-1.66;67.17
62402;BME280;48440;51.224;22.506;2023-12-04T12:47:05;99774.31;;;-1.70;67.48
62402;BME280;48440;51.224;22.506;2023-12-04T12:49:32;99766.16;;;-1.77;67.27
62402;BME280;48440;51.224;22.506;2023-12-04T12:52:00;99769.81;;;-1.78;67.59
62402;BME280;48440;51.224;22.506;2023-12-04T12:54:25;99773.16;;;-1.76;67.24